createdAt,value
2022-09-01T00:03:19.985Z,0
2022-09-01T00:14:00.532Z,0
2022-09-01T00:24:46.113Z,0
2022-09-01T00:30:08.464Z,0
2022-09-01T00:35:31.309Z,0
2022-09-01T00:41:00.223Z,0
2022-09-01T00:46:23.330Z,0
2022-09-01T00:51:52.130Z,0
2022-09-01T00:57:14.510Z,0
2022-09-01T01:02:36.895Z,0
2022-09-01T01:08:02.206Z,0
2022-09-01T01:13:28.637Z,0
2022-09-01T01:23:55.529Z,0
2022-09-01T01:29:17.989Z,0
2022-09-01T01:34:40.574Z,0
2022-09-01T01:40:02.960Z,0
2022-09-01T01:45:25.560Z,0
2022-09-01T01:50:47.820Z,0
2022-09-01T01:56:10.597Z,0
2022-09-01T02:06:55.513Z,0
2022-09-01T02:12:20.731Z,0
2022-09-01T02:17:43.309Z,0
2022-09-01T02:23:05.779Z,0
2022-09-01T02:28:28.387Z,0
2022-09-01T02:33:53.843Z,0
2022-09-01T02:39:16.259Z,0
2022-09-01T02:44:41.775Z,0
2022-09-01T02:50:04.160Z,0
2022-09-01T02:55:26.658Z,0
2022-09-01T03:00:49.168Z,0
2022-09-01T03:06:11.837Z,0
2022-09-01T03:11:35.581Z,0
2022-09-01T03:22:26.469Z,0
2022-09-01T03:27:49.068Z,0
2022-09-01T03:33:11.419Z,0
2022-09-01T03:38:33.928Z,0
2022-09-01T03:44:15.458Z,0
2022-09-01T03:49:38.407Z,0
2022-09-01T03:55:00.723Z,0
2022-09-01T04:00:23.478Z,0
2022-09-01T04:05:45.842Z,0
2022-09-01T04:11:19.056Z,0
2022-09-01T04:16:47.748Z,0
2022-09-01T04:22:53.568Z,0
2022-09-01T04:28:16.038Z,0
2022-09-01T04:33:38.465Z,0
2022-09-01T04:39:02.101Z,0
2022-09-01T04:49:48.752Z,0.1
2022-09-01T04:55:11.214Z,0.1
2022-09-01T05:00:33.729Z,0.1
2022-09-01T05:05:56.981Z,0.1
2022-09-01T05:11:20.276Z,0.1
2022-09-01T05:16:43.190Z,0.1
2022-09-01T05:22:05.906Z,0.1
2022-09-01T05:27:29.335Z,0.1
2022-09-01T05:37:54.846Z,0.2
2022-09-01T05:43:17.901Z,0.4
2022-09-01T05:48:41.279Z,0.4
2022-09-01T05:54:04.258Z,0.4
2022-09-01T06:04:59.568Z,0.5
2022-09-01T06:10:22.055Z,0.5
2022-09-01T06:15:44.553Z,0.5
2022-09-01T06:21:07.589Z,0.5
2022-09-01T06:26:32.525Z,0.5
2022-09-01T06:31:55.218Z,1.1
2022-09-01T06:37:17.941Z,0.7
2022-09-01T06:42:41.113Z,3.3
2022-09-01T06:48:03.841Z,0.9
2022-09-01T06:53:34.272Z,1.5
2022-09-01T06:58:58.802Z,0.7
2022-09-01T07:04:22.751Z,0.8
2022-09-01T07:09:50.209Z,1.1
2022-09-01T07:28:04.612Z,5
2022-09-01T07:33:44.383Z,3
2022-09-01T07:45:30.583Z,2.9
2022-09-01T07:57:06.389Z,3.3
2022-09-01T08:02:29.472Z,3.8
2022-09-01T08:07:53.126Z,4.1
2022-09-01T08:13:16.215Z,4.2
2022-09-01T08:23:48.081Z,4.6
2022-09-01T08:29:11.113Z,5
2022-09-01T08:34:33.959Z,5
2022-09-01T08:39:56.978Z,5.2
2022-09-01T08:45:22.862Z,5.2
2022-09-01T08:50:46.194Z,5.6
2022-09-01T08:56:15.986Z,5.4
2022-09-01T09:01:38.907Z,5.3
2022-09-01T09:07:01.899Z,6.1
2022-09-01T09:17:47.383Z,5.7
2022-09-01T09:23:10.573Z,5.6
2022-09-01T09:28:33.333Z,5.7
2022-09-01T09:33:56.361Z,5.9
2022-09-01T09:39:20.198Z,5.7
2022-09-01T09:44:45.994Z,5.4
2022-09-01T09:50:08.747Z,5.8
2022-09-01T09:55:31.700Z,5.8
2022-09-01T10:00:54.367Z,5.9
2022-09-01T10:06:18.671Z,6.1
2022-09-01T10:11:42.247Z,6.1
2022-09-01T10:17:24.507Z,6.4
2022-09-01T10:22:49.658Z,6.9
2022-09-01T10:28:20.653Z,6.3
2022-09-01T10:33:45.561Z,6.6
2022-09-01T10:39:09.047Z,6.9
2022-09-01T10:44:39.554Z,6.6
2022-09-01T10:50:07.555Z,7.2
2022-09-01T10:55:35.903Z,7
2022-09-01T11:01:17.018Z,7
2022-09-01T11:07:12.540Z,6.8
2022-09-01T11:12:37.733Z,6
2022-09-01T11:18:05.308Z,5.7
2022-09-01T11:23:28.293Z,3.4
2022-09-01T11:28:50.828Z,7.1
2022-09-01T11:34:13.318Z,3.2
2022-09-01T11:39:37.353Z,1.4
2022-09-01T11:45:01.106Z,7
2022-09-01T11:50:27.605Z,6.3
2022-09-01T11:55:50.693Z,1
2022-09-01T12:01:15.483Z,7.3
2022-09-01T12:06:37.288Z,6
2022-09-01T12:12:01.063Z,6.4
2022-09-01T12:17:24.003Z,6.1
2022-09-01T12:22:46.198Z,1.3
2022-09-01T12:28:07.877Z,6.3
2022-09-01T12:38:58.068Z,6.1
2022-09-01T12:44:20.726Z,5.9
2022-09-01T12:49:51.979Z,6
2022-09-01T13:01:16.305Z,6.3
2022-09-01T13:06:47.249Z,5.2
2022-09-01T13:12:10.515Z,6.2
2022-09-01T13:17:34.253Z,6.4
2022-09-01T13:23:13.919Z,6.3
2022-09-01T13:28:38.850Z,6.5
2022-09-01T13:34:21.599Z,6.3
2022-09-01T13:39:50.656Z,5.6
2022-09-01T13:45:12.947Z,6.3
2022-09-01T13:56:42.312Z,6
2022-09-01T14:02:05.830Z,5.9
2022-09-01T14:07:31.185Z,6.2
2022-09-01T14:12:54.238Z,1.5
2022-09-01T14:18:15.732Z,0.8
2022-09-01T14:23:36.815Z,6
2022-09-01T14:29:01.240Z,6
2022-09-01T14:34:24.098Z,5.6
2022-09-01T14:39:49.982Z,5.2
2022-09-01T14:45:11.969Z,5.1
2022-09-01T14:50:34.696Z,2.2
2022-09-01T14:55:58.376Z,0.6
2022-09-01T15:01:33.518Z,0.5
2022-09-01T15:06:58.166Z,0.6
2022-09-01T15:12:20.522Z,0.9
2022-09-01T15:17:54.902Z,1
2022-09-01T15:23:17.314Z,0.8
2022-09-01T15:28:39.860Z,0.7
2022-09-01T15:34:05.667Z,0.6
2022-09-01T15:39:34.909Z,0.6
2022-09-01T15:45:01.354Z,0.5
2022-09-01T15:50:23.827Z,0.6
2022-09-01T15:56:07.299Z,0.6
2022-09-01T16:01:35.427Z,0.6
2022-09-01T16:07:07.449Z,0.5
2022-09-01T16:12:29.913Z,0.4
2022-09-01T16:17:55.477Z,0.4
2022-09-01T16:23:17.917Z,0.4
2022-09-01T16:28:43.644Z,0.4
2022-09-01T16:34:05.975Z,0.4
2022-09-01T16:39:31.062Z,0.3
2022-09-01T16:44:53.523Z,0.3
2022-09-01T16:50:16.194Z,0.3
2022-09-01T16:55:42.616Z,0.3
2022-09-01T17:01:05.649Z,0.3
2022-09-01T17:06:35.505Z,0.3
2022-09-01T17:11:58.104Z,0.2
2022-09-01T17:17:20.692Z,0.2
2022-09-01T17:22:44.083Z,0.2
2022-09-01T17:28:06.405Z,0.2
2022-09-01T17:33:34.167Z,0.1
2022-09-01T17:38:56.652Z,0.2
2022-09-01T17:49:42.097Z,0.1
2022-09-01T17:55:04.445Z,0.1
2022-09-01T18:00:29.416Z,0.1
2022-09-01T18:05:52.508Z,0.1
2022-09-01T18:11:15.428Z,0
2022-09-01T18:16:37.968Z,0
2022-09-01T18:22:00.638Z,0
2022-09-01T18:27:24.072Z,0
2022-09-01T18:32:55.896Z,0
2022-09-01T18:38:18.226Z,0
2022-09-01T18:43:40.611Z,0
2022-09-01T18:49:03.279Z,0
2022-09-01T18:54:29.163Z,0
2022-09-01T19:00:18.037Z,0
2022-09-01T19:05:44.052Z,0
2022-09-01T19:11:23.884Z,0
2022-09-01T19:16:46.995Z,0
2022-09-01T19:28:04.542Z,0
2022-09-01T19:33:29.790Z,0
2022-09-01T19:39:00.217Z,0
2022-09-01T19:44:27.836Z,0
2022-09-01T19:55:13.048Z,0
2022-09-01T20:00:36.083Z,0
2022-09-01T20:05:58.495Z,0
2022-09-01T20:16:24.088Z,0
2022-09-01T20:21:47.042Z,0
2022-09-01T20:27:10.166Z,0
2022-09-01T20:32:35.796Z,0
2022-09-01T20:37:59.039Z,0
2022-09-01T20:43:21.287Z,0
2022-09-01T20:48:46.687Z,0
2022-09-01T20:54:21.309Z,0
2022-09-01T20:59:45.482Z,0
2022-09-01T21:05:11.150Z,0
2022-09-01T21:10:36.169Z,0
2022-09-01T21:15:58.823Z,0
2022-09-01T21:21:21.181Z,0
2022-09-01T21:32:07.301Z,0
2022-09-01T21:37:32.681Z,0
2022-09-01T21:42:55.398Z,0
2022-09-01T21:48:20.944Z,0
2022-09-01T21:53:43.198Z,0
2022-09-01T22:00:26.688Z,0
2022-09-01T22:05:53.029Z,0
2022-09-01T22:11:17.981Z,0
2022-09-01T22:16:40.407Z,0
2022-09-01T22:22:07.042Z,0
2022-09-01T22:27:31.075Z,0
2022-09-01T22:32:53.741Z,0
2022-09-01T22:38:16.238Z,0
2022-09-01T22:43:38.980Z,0
2022-09-01T22:49:10.614Z,0
2022-09-01T22:54:33.468Z,0
2022-09-01T22:59:56.848Z,0
2022-09-01T23:05:19.283Z,0
2022-09-01T23:10:41.853Z,0
2022-09-01T23:16:04.724Z,0
2022-09-01T23:21:51.294Z,0
2022-09-01T23:27:13.690Z,0
2022-09-01T23:32:36.742Z,0
2022-09-01T23:37:59.444Z,0
2022-09-01T23:43:22.115Z,0
2022-09-01T23:54:07.674Z,0
2022-09-01T23:59:29.961Z,0
